Terminal Aerodrome Forecast
Issued by NWS

Home | Current Version | Previous Version | Text Only | Print | Product List | Glossary On
Versions: 1 2 3 4 5 6 7 8 9 10 11 12 13 14 15 16 17 18 19 20 21 22 23 24
000
FTUS43 KGLD 222337
TAFMCK
TAF
KMCK 222337Z 2300/2324 30015G23KT P6SM SCT100 BKN200
     FM230100 30015KT P6SM SCT050 BKN100
     FM230400 31018G25KT P6SM OVC080
     FM230800 32020G30KT P6SM VCSH SCT013 OVC025
     FM231400 33025G35KT 2SM -SN BR BKN007
     FM231700 34025G35KT P6SM VCSH SCT007 OVC015=

USA.gov is the U.S. government's official web portal to all federal, state and local government web resources and services.